sensor_id;sensor_type;location;lat;lon;timestamp;P1;durP1;ratioP1;P2;durP2;ratioP2
19059;SDS011;9663;48.996;8.334;2022-07-23T00:02:05;5.38;;;2.90;;
19059;SDS011;9663;48.996;8.334;2022-07-23T00:04:31;4.43;;;2.75;;
19059;SDS011;9663;48.996;8.334;2022-07-23T00:06:58;5.72;;;3.03;;
19059;SDS011;9663;48.996;8.334;2022-07-23T00:09:24;4.97;;;2.95;;
19059;SDS011;9663;48.996;8.334;2022-07-23T00:11:50;7.28;;;3.22;;
19059;SDS011;9663;48.996;8.334;2022-07-23T00:14:16;4.90;;;3.00;;
19059;SDS011;9663;48.996;8.334;2022-07-23T00:16:41;5.20;;;2.60;;
19059;SDS011;9663;48.996;8.334;2022-07-23T00:19:08;4.95;;;2.72;;
19059;SDS011;9663;48.996;8.334;2022-07-23T00:21:34;4.95;;;2.80;;
19059;SDS011;9663;48.996;8.334;2022-07-23T00:23:59;6.35;;;2.78;;
19059;SDS011;9663;48.996;8.334;2022-07-23T00:26:25;4.78;;;2.85;;
19059;SDS011;9663;48.996;8.334;2022-07-23T00:28:51;5.00;;;2.45;;
19059;SDS011;9663;48.996;8.334;2022-07-23T00:31:16;5.15;;;2.92;;
19059;SDS011;9663;48.996;8.334;2022-07-23T00:33:42;4.38;;;2.42;;
19059;SDS011;9663;48.996;8.334;2022-07-23T00:36:08;4.93;;;2.85;;
19059;SDS011;9663;48.996;8.334;2022-07-23T00:38:33;4.78;;;2.58;;
19059;SDS011;9663;48.996;8.334;2022-07-23T00:40:59;4.82;;;2.67;;
19059;SDS011;9663;48.996;8.334;2022-07-23T00:43:25;4.85;;;2.83;;
19059;SDS011;9663;48.996;8.334;2022-07-23T00:45:50;5.85;;;2.60;;
19059;SDS011;9663;48.996;8.334;2022-07-23T00:48:16;4.53;;;2.50;;
19059;SDS011;9663;48.996;8.334;2022-07-23T00:50:42;4.70;;;2.65;;
19059;SDS011;9663;48.996;8.334;2022-07-23T00:53:08;5.00;;;2.50;;
19059;SDS011;9663;48.996;8.334;2022-07-23T00:55:35;7.20;;;2.88;;
19059;SDS011;9663;48.996;8.334;2022-07-23T00:58:01;3.85;;;2.15;;
19059;SDS011;9663;48.996;8.334;2022-07-23T01:00:27;4.15;;;2.30;;
19059;SDS011;9663;48.996;8.334;2022-07-23T01:02:53;5.35;;;2.50;;
19059;SDS011;9663;48.996;8.334;2022-07-23T01:05:19;8.00;;;2.70;;
19059;SDS011;9663;48.996;8.334;2022-07-23T01:07:48;5.68;;;2.90;;
19059;SDS011;9663;48.996;8.334;2022-07-23T01:10:15;4.50;;;2.42;;
19059;SDS011;9663;48.996;8.334;2022-07-23T01:12:56;4.95;;;2.47;;
19059;SDS011;9663;48.996;8.334;2022-07-23T01:15:23;4.22;;;2.28;;
19059;SDS011;9663;48.996;8.334;2022-07-23T01:17:49;4.70;;;2.53;;
19059;SDS011;9663;48.996;8.334;2022-07-23T01:20:15;6.10;;;2.60;;
19059;SDS011;9663;48.996;8.334;2022-07-23T01:22:41;5.28;;;2.53;;
19059;SDS011;9663;48.996;8.334;2022-07-23T01:25:07;4.93;;;2.33;;
19059;SDS011;9663;48.996;8.334;2022-07-23T01:27:34;4.95;;;2.50;;
19059;SDS011;9663;48.996;8.334;2022-07-23T01:30:00;4.25;;;2.42;;
19059;SDS011;9663;48.996;8.334;2022-07-23T01:32:27;5.00;;;2.60;;
19059;SDS011;9663;48.996;8.334;2022-07-23T01:34:53;5.88;;;2.40;;
19059;SDS011;9663;48.996;8.334;2022-07-23T01:37:19;4.97;;;2.50;;
19059;SDS011;9663;48.996;8.334;2022-07-23T01:39:45;5.70;;;2.75;;
19059;SDS011;9663;48.996;8.334;2022-07-23T01:42:10;4.57;;;2.42;;
19059;SDS011;9663;48.996;8.334;2022-07-23T01:44:36;4.97;;;2.40;;
19059;SDS011;9663;48.996;8.334;2022-07-23T01:47:02;4.57;;;2.35;;
19059;SDS011;9663;48.996;8.334;2022-07-23T01:49:28;4.57;;;2.13;;
19059;SDS011;9663;48.996;8.334;2022-07-23T01:51:53;4.88;;;2.58;;
19059;SDS011;9663;48.996;8.334;2022-07-23T01:54:28;4.18;;;2.10;;
19059;SDS011;9663;48.996;8.334;2022-07-23T01:56:56;4.45;;;2.25;;
19059;SDS011;9663;48.996;8.334;2022-07-23T01:59:22;4.88;;;2.25;;
19059;SDS011;9663;48.996;8.334;2022-07-23T02:01:49;4.70;;;2.30;;
19059;SDS011;9663;48.996;8.334;2022-07-23T02:04:19;5.60;;;2.15;;
19059;SDS011;9663;48.996;8.334;2022-07-23T02:06:46;8.48;;;2.30;;
19059;SDS011;9663;48.996;8.334;2022-07-23T02:09:13;4.28;;;1.88;;
19059;SDS011;9663;48.996;8.334;2022-07-23T02:11:39;4.07;;;2.15;;
19059;SDS011;9663;48.996;8.334;2022-07-23T02:14:05;4.40;;;2.40;;
19059;SDS011;9663;48.996;8.334;2022-07-23T02:16:30;4.32;;;2.22;;
19059;SDS011;9663;48.996;8.334;2022-07-23T02:18:56;4.43;;;2.00;;
19059;SDS011;9663;48.996;8.334;2022-07-23T02:21:22;4.30;;;2.30;;
19059;SDS011;9663;48.996;8.334;2022-07-23T02:23:48;3.95;;;2.22;;
19059;SDS011;9663;48.996;8.334;2022-07-23T02:26:14;3.92;;;2.10;;
19059;SDS011;9663;48.996;8.334;2022-07-23T02:28:39;4.00;;;2.00;;
19059;SDS011;9663;48.996;8.334;2022-07-23T02:31:05;3.88;;;1.85;;
19059;SDS011;9663;48.996;8.334;2022-07-23T02:33:31;3.95;;;2.00;;
19059;SDS011;9663;48.996;8.334;2022-07-23T02:35:58;3.95;;;1.90;;
19059;SDS011;9663;48.996;8.334;2022-07-23T02:38:24;6.00;;;2.60;;
19059;SDS011;9663;48.996;8.334;2022-07-23T02:40:50;3.60;;;1.83;;
19059;SDS011;9663;48.996;8.334;2022-07-23T02:43:15;3.85;;;2.00;;
19059;SDS011;9663;48.996;8.334;2022-07-23T02:45:41;4.93;;;2.10;;
19059;SDS011;9663;48.996;8.334;2022-07-23T02:48:07;4.95;;;2.13;;
19059;SDS011;9663;48.996;8.334;2022-07-23T02:50:33;4.18;;;2.08;;
19059;SDS011;9663;48.996;8.334;2022-07-23T02:52:58;3.90;;;2.00;;
19059;SDS011;9663;48.996;8.334;2022-07-23T02:55:24;3.95;;;1.80;;
19059;SDS011;9663;48.996;8.334;2022-07-23T02:57:50;3.75;;;1.80;;
19059;SDS011;9663;48.996;8.334;2022-07-23T03:00:16;4.20;;;1.90;;
19059;SDS011;9663;48.996;8.334;2022-07-23T03:02:41;5.13;;;2.15;;
19059;SDS011;9663;48.996;8.334;2022-07-23T03:05:07;3.90;;;2.05;;
19059;SDS011;9663;48.996;8.334;2022-07-23T03:07:34;5.00;;;1.80;;
19059;SDS011;9663;48.996;8.334;2022-07-23T03:09:59;3.60;;;1.75;;
19059;SDS011;9663;48.996;8.334;2022-07-23T03:12:25;3.85;;;1.95;;
19059;SDS011;9663;48.996;8.334;2022-07-23T03:14:51;4.07;;;1.80;;
19059;SDS011;9663;48.996;8.334;2022-07-23T03:17:17;4.18;;;2.20;;
19059;SDS011;9663;48.996;8.334;2022-07-23T03:19:42;4.40;;;1.63;;
19059;SDS011;9663;48.996;8.334;2022-07-23T03:22:08;3.60;;;1.70;;
19059;SDS011;9663;48.996;8.334;2022-07-23T03:24:34;4.00;;;2.05;;
19059;SDS011;9663;48.996;8.334;2022-07-23T03:27:18;3.92;;;1.80;;
19059;SDS011;9663;48.996;8.334;2022-07-23T03:29:44;3.65;;;1.70;;
19059;SDS011;9663;48.996;8.334;2022-07-23T03:32:10;3.35;;;1.65;;
19059;SDS011;9663;48.996;8.334;2022-07-23T03:34:36;3.92;;;1.80;;
19059;SDS011;9663;48.996;8.334;2022-07-23T03:37:02;3.80;;;1.60;;
19059;SDS011;9663;48.996;8.334;2022-07-23T03:39:27;3.95;;;1.80;;
19059;SDS011;9663;48.996;8.334;2022-07-23T03:41:53;3.38;;;1.58;;
19059;SDS011;9663;48.996;8.334;2022-07-23T03:44:19;3.70;;;1.80;;
19059;SDS011;9663;48.996;8.334;2022-07-23T03:46:45;3.80;;;1.88;;
19059;SDS011;9663;48.996;8.334;2022-07-23T03:49:10;3.85;;;1.90;;
19059;SDS011;9663;48.996;8.334;2022-07-23T03:51:36;3.60;;;1.50;;
19059;SDS011;9663;48.996;8.334;2022-07-23T03:54:01;3.67;;;1.80;;
19059;SDS011;9663;48.996;8.334;2022-07-23T03:56:27;3.70;;;1.80;;
19059;SDS011;9663;48.996;8.334;2022-07-23T03:58:53;3.88;;;1.85;;
19059;SDS011;9663;48.996;8.334;2022-07-23T04:01:19;3.90;;;1.98;;
19059;SDS011;9663;48.996;8.334;2022-07-23T04:03:44;3.95;;;1.75;;
19059;SDS011;9663;48.996;8.334;2022-07-23T04:06:11;3.67;;;1.75;;
19059;SDS011;9663;48.996;8.334;2022-07-23T04:08:37;3.78;;;1.65;;
19059;SDS011;9663;48.996;8.334;2022-07-23T04:11:02;4.93;;;1.85;;
19059;SDS011;9663;48.996;8.334;2022-07-23T04:13:29;4.03;;;1.88;;
19059;SDS011;9663;48.996;8.334;2022-07-23T04:15:54;3.97;;;1.70;;
19059;SDS011;9663;48.996;8.334;2022-07-23T04:18:20;3.60;;;1.80;;
19059;SDS011;9663;48.996;8.334;2022-07-23T04:20:48;4.30;;;1.70;;
19059;SDS011;9663;48.996;8.334;2022-07-23T04:23:16;4.38;;;1.90;;
19059;SDS011;9663;48.996;8.334;2022-07-23T04:25:42;3.70;;;1.70;;
19059;SDS011;9663;48.996;8.334;2022-07-23T04:28:08;3.92;;;1.85;;
19059;SDS011;9663;48.996;8.334;2022-07-23T04:30:34;3.88;;;1.75;;
19059;SDS011;9663;48.996;8.334;2022-07-23T04:33:00;3.55;;;1.77;;
19059;SDS011;9663;48.996;8.334;2022-07-23T04:35:26;3.80;;;1.98;;
19059;SDS011;9663;48.996;8.334;2022-07-23T04:37:52;3.53;;;1.55;;
19059;SDS011;9663;48.996;8.334;2022-07-23T04:40:17;4.20;;;1.95;;
19059;SDS011;9663;48.996;8.334;2022-07-23T04:42:43;3.65;;;1.80;;
19059;SDS011;9663;48.996;8.334;2022-07-23T04:45:09;4.40;;;1.67;;
19059;SDS011;9663;48.996;8.334;2022-07-23T04:47:35;3.85;;;1.98;;
19059;SDS011;9663;48.996;8.334;2022-07-23T04:50:00;3.92;;;1.80;;
19059;SDS011;9663;48.996;8.334;2022-07-23T04:52:26;4.10;;;2.05;;
19059;SDS011;9663;48.996;8.334;2022-07-23T04:54:52;4.40;;;1.73;;
19059;SDS011;9663;48.996;8.334;2022-07-23T04:57:17;3.92;;;1.92;;
19059;SDS011;9663;48.996;8.334;2022-07-23T04:59:43;3.80;;;1.85;;
19059;SDS011;9663;48.996;8.334;2022-07-23T05:02:08;4.65;;;2.20;;
19059;SDS011;9663;48.996;8.334;2022-07-23T05:04:34;3.78;;;1.90;;
19059;SDS011;9663;48.996;8.334;2022-07-23T05:07:00;3.90;;;1.73;;
19059;SDS011;9663;48.996;8.334;2022-07-23T05:09:26;4.05;;;2.00;;
19059;SDS011;9663;48.996;8.334;2022-07-23T05:11:51;3.95;;;2.05;;
19059;SDS011;9663;48.996;8.334;2022-07-23T05:14:17;5.03;;;2.35;;
19059;SDS011;9663;48.996;8.334;2022-07-23T05:16:43;5.03;;;2.47;;
19059;SDS011;9663;48.996;8.334;2022-07-23T05:19:09;5.15;;;2.53;;
19059;SDS011;9663;48.996;8.334;2022-07-23T05:21:34;4.72;;;2.22;;
19059;SDS011;9663;48.996;8.334;2022-07-23T05:24:00;4.65;;;2.40;;
19059;SDS011;9663;48.996;8.334;2022-07-23T05:26:26;4.72;;;2.10;;
19059;SDS011;9663;48.996;8.334;2022-07-23T05:28:52;4.10;;;1.95;;
19059;SDS011;9663;48.996;8.334;2022-07-23T05:31:17;3.67;;;1.63;;
19059;SDS011;9663;48.996;8.334;2022-07-23T05:33:43;4.50;;;1.88;;
19059;SDS011;9663;48.996;8.334;2022-07-23T05:36:09;3.67;;;1.65;;
19059;SDS011;9663;48.996;8.334;2022-07-23T05:38:35;3.88;;;1.85;;
19059;SDS011;9663;48.996;8.334;2022-07-23T05:41:01;4.05;;;1.75;;
19059;SDS011;9663;48.996;8.334;2022-07-23T05:43:27;4.32;;;2.00;;
19059;SDS011;9663;48.996;8.334;2022-07-23T05:45:53;4.40;;;2.10;;
19059;SDS011;9663;48.996;8.334;2022-07-23T05:48:19;3.75;;;1.80;;
19059;SDS011;9663;48.996;8.334;2022-07-23T05:50:46;4.28;;;1.77;;
19059;SDS011;9663;48.996;8.334;2022-07-23T05:53:12;4.25;;;1.95;;
19059;SDS011;9663;48.996;8.334;2022-07-23T05:55:38;3.67;;;1.90;;
19059;SDS011;9663;48.996;8.334;2022-07-23T05:58:04;3.50;;;1.83;;
19059;SDS011;9663;48.996;8.334;2022-07-23T06:00:30;5.38;;;2.03;;
19059;SDS011;9663;48.996;8.334;2022-07-23T06:02:57;5.85;;;1.80;;
19059;SDS011;9663;48.996;8.334;2022-07-23T06:05:22;4.18;;;2.15;;
19059;SDS011;9663;48.996;8.334;2022-07-23T06:07:48;4.22;;;2.22;;
19059;SDS011;9663;48.996;8.334;2022-07-23T06:10:15;3.55;;;1.80;;
19059;SDS011;9663;48.996;8.334;2022-07-23T06:12:41;3.95;;;1.98;;
19059;SDS011;9663;48.996;8.334;2022-07-23T06:15:07;3.85;;;1.85;;
19059;SDS011;9663;48.996;8.334;2022-07-23T06:17:34;4.15;;;2.00;;
19059;SDS011;9663;48.996;8.334;2022-07-23T06:19:59;3.67;;;2.03;;
19059;SDS011;9663;48.996;8.334;2022-07-23T06:22:25;3.83;;;2.00;;
19059;SDS011;9663;48.996;8.334;2022-07-23T06:24:51;4.13;;;1.95;;
19059;SDS011;9663;48.996;8.334;2022-07-23T06:27:17;3.80;;;1.77;;
19059;SDS011;9663;48.996;8.334;2022-07-23T06:29:43;5.95;;;2.15;;
19059;SDS011;9663;48.996;8.334;2022-07-23T06:32:09;4.50;;;2.20;;
19059;SDS011;9663;48.996;8.334;2022-07-23T06:34:35;4.80;;;2.13;;
19059;SDS011;9663;48.996;8.334;2022-07-23T06:37:01;4.25;;;1.88;;
19059;SDS011;9663;48.996;8.334;2022-07-23T06:39:26;4.53;;;2.03;;
19059;SDS011;9663;48.996;8.334;2022-07-23T06:41:52;4.40;;;2.05;;
19059;SDS011;9663;48.996;8.334;2022-07-23T06:44:18;4.25;;;2.00;;
19059;SDS011;9663;48.996;8.334;2022-07-23T06:46:44;4.40;;;2.03;;
19059;SDS011;9663;48.996;8.334;2022-07-23T06:49:09;3.67;;;1.85;;
19059;SDS011;9663;48.996;8.334;2022-07-23T06:51:35;4.20;;;2.15;;
19059;SDS011;9663;48.996;8.334;2022-07-23T06:54:01;4.18;;;1.90;;
19059;SDS011;9663;48.996;8.334;2022-07-23T06:56:27;6.60;;;2.30;;
19059;SDS011;9663;48.996;8.334;2022-07-23T06:58:53;5.30;;;2.30;;
19059;SDS011;9663;48.996;8.334;2022-07-23T07:01:19;4.40;;;1.90;;
19059;SDS011;9663;48.996;8.334;2022-07-23T07:03:45;4.82;;;1.95;;
19059;SDS011;9663;48.996;8.334;2022-07-23T07:06:11;4.40;;;2.00;;
19059;SDS011;9663;48.996;8.334;2022-07-23T07:08:37;4.10;;;2.10;;
19059;SDS011;9663;48.996;8.334;2022-07-23T07:11:02;4.75;;;2.10;;
19059;SDS011;9663;48.996;8.334;2022-07-23T07:13:28;4.10;;;2.13;;
19059;SDS011;9663;48.996;8.334;2022-07-23T07:15:54;4.40;;;2.22;;
19059;SDS011;9663;48.996;8.334;2022-07-23T07:18:19;4.05;;;2.08;;
19059;SDS011;9663;48.996;8.334;2022-07-23T07:20:45;4.72;;;1.90;;
19059;SDS011;9663;48.996;8.334;2022-07-23T07:23:11;4.53;;;1.88;;
19059;SDS011;9663;48.996;8.334;2022-07-23T07:25:37;3.97;;;2.03;;
19059;SDS011;9663;48.996;8.334;2022-07-23T07:28:03;4.70;;;2.15;;
19059;SDS011;9663;48.996;8.334;2022-07-23T07:30:29;4.00;;;2.03;;
19059;SDS011;9663;48.996;8.334;2022-07-23T07:32:55;4.40;;;2.00;;
19059;SDS011;9663;48.996;8.334;2022-07-23T07:35:20;3.80;;;2.25;;
19059;SDS011;9663;48.996;8.334;2022-07-23T07:37:46;4.25;;;2.30;;
19059;SDS011;9663;48.996;8.334;2022-07-23T07:40:12;4.10;;;2.17;;
19059;SDS011;9663;48.996;8.334;2022-07-23T07:42:47;4.43;;;2.30;;
19059;SDS011;9663;48.996;8.334;2022-07-23T07:45:17;4.30;;;2.40;;
19059;SDS011;9663;48.996;8.334;2022-07-23T07:47:45;4.25;;;2.10;;
19059;SDS011;9663;48.996;8.334;2022-07-23T07:50:11;5.05;;;2.30;;
19059;SDS011;9663;48.996;8.334;2022-07-23T07:52:36;4.65;;;2.33;;
19059;SDS011;9663;48.996;8.334;2022-07-23T07:55:06;4.32;;;2.42;;
19059;SDS011;9663;48.996;8.334;2022-07-23T07:57:34;4.50;;;2.28;;
19059;SDS011;9663;48.996;8.334;2022-07-23T08:00:00;5.32;;;2.60;;
19059;SDS011;9663;48.996;8.334;2022-07-23T08:02:26;5.80;;;2.42;;
19059;SDS011;9663;48.996;8.334;2022-07-23T08:04:52;5.00;;;2.85;;
19059;SDS011;9663;48.996;8.334;2022-07-23T08:07:18;4.38;;;2.45;;
19059;SDS011;9663;48.996;8.334;2022-07-23T08:09:44;4.60;;;2.30;;
19059;SDS011;9663;48.996;8.334;2022-07-23T08:12:09;5.22;;;2.95;;
19059;SDS011;9663;48.996;8.334;2022-07-23T08:14:35;3.75;;;2.17;;
19059;SDS011;9663;48.996;8.334;2022-07-23T08:17:01;4.10;;;2.30;;
19059;SDS011;9663;48.996;8.334;2022-07-23T08:19:26;4.32;;;2.50;;
19059;SDS011;9663;48.996;8.334;2022-07-23T08:21:52;4.03;;;2.40;;
19059;SDS011;9663;48.996;8.334;2022-07-23T08:24:18;4.50;;;2.53;;
19059;SDS011;9663;48.996;8.334;2022-07-23T08:26:43;4.68;;;2.30;;
19059;SDS011;9663;48.996;8.334;2022-07-23T08:29:09;4.20;;;2.38;;
19059;SDS011;9663;48.996;8.334;2022-07-23T08:31:35;4.35;;;2.45;;
19059;SDS011;9663;48.996;8.334;2022-07-23T08:34:01;4.35;;;2.53;;
19059;SDS011;9663;48.996;8.334;2022-07-23T08:36:27;4.63;;;2.20;;
19059;SDS011;9663;48.996;8.334;2022-07-23T08:38:56;4.38;;;2.30;;
19059;SDS011;9663;48.996;8.334;2022-07-23T08:41:24;5.68;;;2.90;;
19059;SDS011;9663;48.996;8.334;2022-07-23T08:43:50;4.55;;;2.40;;
19059;SDS011;9663;48.996;8.334;2022-07-23T08:46:17;5.35;;;2.72;;
19059;SDS011;9663;48.996;8.334;2022-07-23T08:48:45;5.18;;;2.80;;
19059;SDS011;9663;48.996;8.334;2022-07-23T08:51:14;4.47;;;2.55;;
19059;SDS011;9663;48.996;8.334;2022-07-23T08:53:39;4.40;;;2.42;;
19059;SDS011;9663;48.996;8.334;2022-07-23T08:56:06;5.35;;;2.30;;
19059;SDS011;9663;48.996;8.334;2022-07-23T08:58:33;5.40;;;2.58;;
19059;SDS011;9663;48.996;8.334;2022-07-23T09:01:00;4.13;;;2.33;;
19059;SDS011;9663;48.996;8.334;2022-07-23T09:03:34;4.18;;;2.30;;
19059;SDS011;9663;48.996;8.334;2022-07-23T09:06:03;4.82;;;2.70;;
19059;SDS011;9663;48.996;8.334;2022-07-23T09:08:39;4.93;;;2.85;;
19059;SDS011;9663;48.996;8.334;2022-07-23T09:11:07;4.22;;;2.35;;
19059;SDS011;9663;48.996;8.334;2022-07-23T09:13:51;4.95;;;2.58;;
19059;SDS011;9663;48.996;8.334;2022-07-23T09:16:29;5.97;;;2.60;;
19059;SDS011;9663;48.996;8.334;2022-07-23T09:19:03;6.55;;;2.63;;
19059;SDS011;9663;48.996;8.334;2022-07-23T09:21:32;4.95;;;2.47;;
19059;SDS011;9663;48.996;8.334;2022-07-23T09:24:04;4.68;;;2.70;;
19059;SDS011;9663;48.996;8.334;2022-07-23T09:29:10;5.40;;;2.85;;
19059;SDS011;9663;48.996;8.334;2022-07-23T09:34:30;4.28;;;2.45;;
19059;SDS011;9663;48.996;8.334;2022-07-23T09:37:10;4.75;;;2.75;;
19059;SDS011;9663;48.996;8.334;2022-07-23T09:39:43;4.57;;;2.63;;
19059;SDS011;9663;48.996;8.334;2022-07-23T09:42:14;4.22;;;2.50;;
19059;SDS011;9663;48.996;8.334;2022-07-23T09:44:52;4.55;;;2.63;;
19059;SDS011;9663;48.996;8.334;2022-07-23T09:47:21;5.10;;;2.60;;
19059;SDS011;9663;48.996;8.334;2022-07-23T09:50:06;4.72;;;2.53;;
19059;SDS011;9663;48.996;8.334;2022-07-23T09:52:56;5.70;;;3.00;;
19059;SDS011;9663;48.996;8.334;2022-07-23T09:55:21;5.35;;;2.70;;
19059;SDS011;9663;48.996;8.334;2022-07-23T09:58:04;4.53;;;2.80;;
19059;SDS011;9663;48.996;8.334;2022-07-23T10:00:40;4.82;;;2.90;;
19059;SDS011;9663;48.996;8.334;2022-07-23T10:03:07;5.65;;;2.90;;
19059;SDS011;9663;48.996;8.334;2022-07-23T10:05:35;4.85;;;2.70;;
19059;SDS011;9663;48.996;8.334;2022-07-23T10:08:02;5.10;;;2.88;;
19059;SDS011;9663;48.996;8.334;2022-07-23T10:10:28;4.22;;;2.53;;
19059;SDS011;9663;48.996;8.334;2022-07-23T10:12:56;4.57;;;2.70;;
19059;SDS011;9663;48.996;8.334;2022-07-23T10:15:41;5.32;;;2.75;;
19059;SDS011;9663;48.996;8.334;2022-07-23T10:18:07;5.10;;;3.10;;
19059;SDS011;9663;48.996;8.334;2022-07-23T10:20:35;4.30;;;2.63;;
19059;SDS011;9663;48.996;8.334;2022-07-23T10:23:10;4.82;;;2.70;;
19059;SDS011;9663;48.996;8.334;2022-07-23T10:25:51;4.57;;;2.47;;
19059;SDS011;9663;48.996;8.334;2022-07-23T10:31:26;4.40;;;2.58;;
19059;SDS011;9663;48.996;8.334;2022-07-23T10:34:14;4.65;;;2.78;;
19059;SDS011;9663;48.996;8.334;2022-07-23T10:37:05;4.10;;;2.38;;
19059;SDS011;9663;48.996;8.334;2022-07-23T10:39:49;3.83;;;2.13;;
19059;SDS011;9663;48.996;8.334;2022-07-23T10:42:42;5.05;;;2.75;;
19059;SDS011;9663;48.996;8.334;2022-07-23T10:45:31;4.45;;;2.30;;
19059;SDS011;9663;48.996;8.334;2022-07-23T10:51:10;4.30;;;2.42;;
19059;SDS011;9663;48.996;8.334;2022-07-23T10:59:16;4.05;;;2.28;;
19059;SDS011;9663;48.996;8.334;2022-07-23T11:01:41;5.43;;;2.42;;
19059;SDS011;9663;48.996;8.334;2022-07-23T11:04:07;4.47;;;2.53;;
19059;SDS011;9663;48.996;8.334;2022-07-23T11:09:23;4.20;;;2.60;;
19059;SDS011;9663;48.996;8.334;2022-07-23T11:17:33;4.35;;;2.70;;
19059;SDS011;9663;48.996;8.334;2022-07-23T11:25:13;4.70;;;2.80;;
19059;SDS011;9663;48.996;8.334;2022-07-23T11:27:52;5.68;;;3.10;;
19059;SDS011;9663;48.996;8.334;2022-07-23T11:32:54;4.53;;;2.70;;
19059;SDS011;9663;48.996;8.334;2022-07-23T11:35:44;4.47;;;2.80;;
19059;SDS011;9663;48.996;8.334;2022-07-23T11:38:15;4.40;;;2.58;;
19059;SDS011;9663;48.996;8.334;2022-07-23T11:40:44;4.78;;;2.78;;
19059;SDS011;9663;48.996;8.334;2022-07-23T11:43:15;4.45;;;2.90;;
19059;SDS011;9663;48.996;8.334;2022-07-23T11:45:45;4.65;;;2.38;;
19059;SDS011;9663;48.996;8.334;2022-07-23T11:48:20;4.43;;;2.50;;
19059;SDS011;9663;48.996;8.334;2022-07-23T11:50:50;4.30;;;2.60;;
19059;SDS011;9663;48.996;8.334;2022-07-23T11:53:28;4.47;;;2.65;;
19059;SDS011;9663;48.996;8.334;2022-07-23T11:56:08;4.38;;;2.65;;
19059;SDS011;9663;48.996;8.334;2022-07-23T11:58:37;4.15;;;2.38;;
19059;SDS011;9663;48.996;8.334;2022-07-23T12:01:04;5.00;;;2.30;;
19059;SDS011;9663;48.996;8.334;2022-07-23T12:03:30;3.67;;;2.33;;
19059;SDS011;9663;48.996;8.334;2022-07-23T12:05:59;4.20;;;2.60;;
19059;SDS011;9663;48.996;8.334;2022-07-23T12:08:26;4.25;;;2.55;;
19059;SDS011;9663;48.996;8.334;2022-07-23T12:10:51;4.32;;;2.63;;
19059;SDS011;9663;48.996;8.334;2022-07-23T12:13:18;4.28;;;2.67;;
19059;SDS011;9663;48.996;8.334;2022-07-23T12:15:53;4.00;;;2.30;;
19059;SDS011;9663;48.996;8.334;2022-07-23T12:18:24;4.63;;;2.55;;
19059;SDS011;9663;48.996;8.334;2022-07-23T12:20:53;3.45;;;2.10;;
19059;SDS011;9663;48.996;8.334;2022-07-23T12:23:24;4.32;;;2.50;;
19059;SDS011;9663;48.996;8.334;2022-07-23T12:25:51;4.75;;;2.95;;
19059;SDS011;9663;48.996;8.334;2022-07-23T12:28:19;4.40;;;2.78;;
19059;SDS011;9663;48.996;8.334;2022-07-23T12:30:57;4.25;;;2.45;;
19059;SDS011;9663;48.996;8.334;2022-07-23T12:33:25;3.70;;;2.15;;
19059;SDS011;9663;48.996;8.334;2022-07-23T12:35:58;3.63;;;2.17;;
19059;SDS011;9663;48.996;8.334;2022-07-23T12:38:27;4.55;;;2.40;;
19059;SDS011;9663;48.996;8.334;2022-07-23T12:41:05;4.53;;;2.33;;
19059;SDS011;9663;48.996;8.334;2022-07-23T12:43:32;4.50;;;2.80;;
19059;SDS011;9663;48.996;8.334;2022-07-23T12:46:21;4.68;;;2.75;;
19059;SDS011;9663;48.996;8.334;2022-07-23T12:53:49;4.53;;;2.80;;
19059;SDS011;9663;48.996;8.334;2022-07-23T12:56:40;3.70;;;2.30;;
19059;SDS011;9663;48.996;8.334;2022-07-23T12:59:11;4.32;;;2.53;;
19059;SDS011;9663;48.996;8.334;2022-07-23T13:01:44;5.10;;;2.80;;
19059;SDS011;9663;48.996;8.334;2022-07-23T13:04:20;4.07;;;2.63;;
19059;SDS011;9663;48.996;8.334;2022-07-23T13:06:49;5.28;;;2.42;;
19059;SDS011;9663;48.996;8.334;2022-07-23T13:09:22;6.32;;;2.95;;
19059;SDS011;9663;48.996;8.334;2022-07-23T13:11:51;4.50;;;2.60;;
19059;SDS011;9663;48.996;8.334;2022-07-23T13:14:19;4.45;;;2.65;;
19059;SDS011;9663;48.996;8.334;2022-07-23T13:16:46;4.65;;;2.92;;
19059;SDS011;9663;48.996;8.334;2022-07-23T13:19:17;4.47;;;2.80;;
19059;SDS011;9663;48.996;8.334;2022-07-23T13:21:43;5.70;;;2.70;;
19059;SDS011;9663;48.996;8.334;2022-07-23T13:24:10;4.50;;;2.78;;
19059;SDS011;9663;48.996;8.334;2022-07-23T13:26:37;4.90;;;3.05;;
19059;SDS011;9663;48.996;8.334;2022-07-23T13:29:04;4.43;;;2.78;;
19059;SDS011;9663;48.996;8.334;2022-07-23T13:31:31;4.85;;;2.80;;
19059;SDS011;9663;48.996;8.334;2022-07-23T13:33:57;4.55;;;2.85;;
19059;SDS011;9663;48.996;8.334;2022-07-23T13:36:23;5.18;;;3.28;;
19059;SDS011;9663;48.996;8.334;2022-07-23T13:38:48;4.32;;;2.67;;
19059;SDS011;9663;48.996;8.334;2022-07-23T13:41:15;3.83;;;2.28;;
19059;SDS011;9663;48.996;8.334;2022-07-23T13:43:43;4.32;;;2.67;;
19059;SDS011;9663;48.996;8.334;2022-07-23T13:46:09;4.90;;;2.47;;
19059;SDS011;9663;48.996;8.334;2022-07-23T13:48:34;4.13;;;2.63;;
19059;SDS011;9663;48.996;8.334;2022-07-23T13:51:00;4.40;;;2.80;;
19059;SDS011;9663;48.996;8.334;2022-07-23T13:53:26;4.82;;;2.97;;
19059;SDS011;9663;48.996;8.334;2022-07-23T13:55:52;4.63;;;2.83;;
19059;SDS011;9663;48.996;8.334;2022-07-23T13:58:19;4.32;;;2.85;;
19059;SDS011;9663;48.996;8.334;2022-07-23T14:00:47;4.55;;;2.80;;
19059;SDS011;9663;48.996;8.334;2022-07-23T14:03:17;4.82;;;2.72;;
19059;SDS011;9663;48.996;8.334;2022-07-23T14:05:44;5.13;;;2.80;;
19059;SDS011;9663;48.996;8.334;2022-07-23T14:08:10;4.30;;;2.60;;
19059;SDS011;9663;48.996;8.334;2022-07-23T14:10:36;4.35;;;2.50;;
19059;SDS011;9663;48.996;8.334;2022-07-23T14:13:02;4.53;;;2.75;;
19059;SDS011;9663;48.996;8.334;2022-07-23T14:15:29;4.40;;;2.88;;
19059;SDS011;9663;48.996;8.334;2022-07-23T14:17:56;4.85;;;2.70;;
19059;SDS011;9663;48.996;8.334;2022-07-23T14:20:22;4.70;;;2.75;;
19059;SDS011;9663;48.996;8.334;2022-07-23T14:22:48;4.53;;;3.00;;
19059;SDS011;9663;48.996;8.334;2022-07-23T14:25:15;4.25;;;2.60;;
19059;SDS011;9663;48.996;8.334;2022-07-23T14:27:44;4.20;;;2.60;;
19059;SDS011;9663;48.996;8.334;2022-07-23T14:30:10;4.63;;;2.90;;
19059;SDS011;9663;48.996;8.334;2022-07-23T14:32:37;4.43;;;2.65;;
19059;SDS011;9663;48.996;8.334;2022-07-23T14:35:03;4.88;;;3.10;;
19059;SDS011;9663;48.996;8.334;2022-07-23T14:37:31;4.40;;;2.80;;
19059;SDS011;9663;48.996;8.334;2022-07-23T14:39:56;4.43;;;2.72;;
19059;SDS011;9663;48.996;8.334;2022-07-23T14:42:22;4.80;;;2.90;;
19059;SDS011;9663;48.996;8.334;2022-07-23T14:44:48;4.32;;;2.70;;
19059;SDS011;9663;48.996;8.334;2022-07-23T14:47:14;4.35;;;2.80;;
19059;SDS011;9663;48.996;8.334;2022-07-23T14:49:39;3.97;;;2.45;;
19059;SDS011;9663;48.996;8.334;2022-07-23T14:52:05;4.25;;;2.35;;
19059;SDS011;9663;48.996;8.334;2022-07-23T14:54:32;5.85;;;2.97;;
19059;SDS011;9663;48.996;8.334;2022-07-23T14:56:59;4.95;;;2.85;;
19059;SDS011;9663;48.996;8.334;2022-07-23T14:59:27;4.63;;;2.92;;
19059;SDS011;9663;48.996;8.334;2022-07-23T15:01:55;4.72;;;2.60;;
19059;SDS011;9663;48.996;8.334;2022-07-23T15:04:22;4.68;;;2.90;;
19059;SDS011;9663;48.996;8.334;2022-07-23T15:06:49;5.13;;;3.20;;
19059;SDS011;9663;48.996;8.334;2022-07-23T15:09:15;4.60;;;3.15;;
19059;SDS011;9663;48.996;8.334;2022-07-23T15:11:41;5.13;;;3.15;;
19059;SDS011;9663;48.996;8.334;2022-07-23T15:14:07;4.72;;;3.20;;
19059;SDS011;9663;48.996;8.334;2022-07-23T15:16:33;5.53;;;4.13;;
19059;SDS011;9663;48.996;8.334;2022-07-23T15:19:00;5.38;;;3.72;;
19059;SDS011;9663;48.996;8.334;2022-07-23T15:21:27;5.20;;;3.55;;
19059;SDS011;9663;48.996;8.334;2022-07-23T15:23:54;4.82;;;3.00;;
19059;SDS011;9663;48.996;8.334;2022-07-23T15:26:23;5.68;;;3.55;;
19059;SDS011;9663;48.996;8.334;2022-07-23T15:28:51;4.60;;;3.20;;
19059;SDS011;9663;48.996;8.334;2022-07-23T15:31:16;5.85;;;3.80;;
19059;SDS011;9663;48.996;8.334;2022-07-23T15:33:42;5.13;;;3.17;;
19059;SDS011;9663;48.996;8.334;2022-07-23T15:36:07;5.13;;;3.30;;
19059;SDS011;9663;48.996;8.334;2022-07-23T15:38:34;4.85;;;3.45;;
19059;SDS011;9663;48.996;8.334;2022-07-23T15:41:00;5.18;;;3.35;;
19059;SDS011;9663;48.996;8.334;2022-07-23T15:43:25;5.93;;;3.95;;